sensor_id;sensor_type;location;lat;lon;timestamp;P1;durP1;ratioP1;P2;durP2;ratioP2
29218;SDS011;16421;50.202;7.852;2023-03-24T00:00:03;0.70;;;0.60;;
29218;SDS011;16421;50.202;7.852;2023-03-24T00:05:12;2.28;;;0.80;;
29218;SDS011;16421;50.202;7.852;2023-03-24T00:10:18;2.13;;;0.80;;
29218;SDS011;16421;50.202;7.852;2023-03-24T00:15:23;1.63;;;0.97;;
29218;SDS011;16421;50.202;7.852;2023-03-24T00:20:26;1.10;;;0.80;;
29218;SDS011;16421;50.202;7.852;2023-03-24T00:25:31;0.80;;;0.70;;
29218;SDS011;16421;50.202;7.852;2023-03-24T00:35:42;1.80;;;0.80;;
29218;SDS011;16421;50.202;7.852;2023-03-24T00:40:50;0.60;;;0.60;;
29218;SDS011;16421;50.202;7.852;2023-03-24T00:45:56;1.13;;;0.70;;
29218;SDS011;16421;50.202;7.852;2023-03-24T00:51:02;0.70;;;0.70;;
29218;SDS011;16421;50.202;7.852;2023-03-24T01:01:15;1.30;;;1.00;;
29218;SDS011;16421;50.202;7.852;2023-03-24T01:06:22;1.30;;;1.20;;
29218;SDS011;16421;50.202;7.852;2023-03-24T01:11:27;1.85;;;1.13;;
29218;SDS011;16421;50.202;7.852;2023-03-24T01:16:36;2.55;;;1.30;;
29218;SDS011;16421;50.202;7.852;2023-03-24T01:21:39;1.73;;;1.33;;
29218;SDS011;16421;50.202;7.852;2023-03-24T01:26:45;2.05;;;1.30;;
29218;SDS011;16421;50.202;7.852;2023-03-24T01:31:48;1.35;;;1.10;;
29218;SDS011;16421;50.202;7.852;2023-03-24T01:36:51;1.70;;;1.08;;
29218;SDS011;16421;50.202;7.852;2023-03-24T01:41:56;2.50;;;1.48;;
29218;SDS011;16421;50.202;7.852;2023-03-24T01:47:00;2.30;;;1.92;;
29218;SDS011;16421;50.202;7.852;2023-03-24T01:52:08;2.67;;;1.67;;
29218;SDS011;16421;50.202;7.852;2023-03-24T01:57:19;1.60;;;1.40;;
29218;SDS011;16421;50.202;7.852;2023-03-24T02:02:26;2.88;;;1.50;;
29218;SDS011;16421;50.202;7.852;2023-03-24T02:07:31;1.52;;;1.33;;
29218;SDS011;16421;50.202;7.852;2023-03-24T02:12:39;2.40;;;1.50;;
29218;SDS011;16421;50.202;7.852;2023-03-24T02:17:49;1.65;;;1.55;;
29218;SDS011;16421;50.202;7.852;2023-03-24T02:28:38;2.80;;;1.38;;
29218;SDS011;16421;50.202;7.852;2023-03-24T02:34:10;2.72;;;1.77;;
29218;SDS011;16421;50.202;7.852;2023-03-24T02:45:00;1.67;;;1.23;;
29218;SDS011;16421;50.202;7.852;2023-03-24T02:50:11;2.78;;;1.80;;
29218;SDS011;16421;50.202;7.852;2023-03-24T02:55:22;2.42;;;2.05;;
29218;SDS011;16421;50.202;7.852;2023-03-24T03:00:30;1.52;;;1.33;;
29218;SDS011;16421;50.202;7.852;2023-03-24T03:05:41;2.38;;;1.70;;
29218;SDS011;16421;50.202;7.852;2023-03-24T03:10:50;2.88;;;1.98;;
29218;SDS011;16421;50.202;7.852;2023-03-24T03:15:57;1.98;;;1.70;;
29218;SDS011;16421;50.202;7.852;2023-03-24T03:21:05;2.42;;;1.60;;
29218;SDS011;16421;50.202;7.852;2023-03-24T03:26:15;2.58;;;1.95;;
29218;SDS011;16421;50.202;7.852;2023-03-24T03:31:24;2.78;;;2.22;;
29218;SDS011;16421;50.202;7.852;2023-03-24T03:36:31;3.45;;;2.20;;
29218;SDS011;16421;50.202;7.852;2023-03-24T03:41:41;2.90;;;2.47;;
29218;SDS011;16421;50.202;7.852;2023-03-24T03:51:56;4.03;;;2.40;;
29218;SDS011;16421;50.202;7.852;2023-03-24T03:57:01;2.33;;;2.08;;
29218;SDS011;16421;50.202;7.852;2023-03-24T04:02:26;3.45;;;2.63;;
29218;SDS011;16421;50.202;7.852;2023-03-24T04:07:42;2.20;;;1.70;;
29218;SDS011;16421;50.202;7.852;2023-03-24T04:13:16;2.33;;;1.88;;
29218;SDS011;16421;50.202;7.852;2023-03-24T04:18:56;2.35;;;1.65;;
29218;SDS011;16421;50.202;7.852;2023-03-24T04:24:13;2.70;;;1.77;;
29218;SDS011;16421;50.202;7.852;2023-03-24T04:29:33;1.92;;;1.42;;
29218;SDS011;16421;50.202;7.852;2023-03-24T04:34:43;1.98;;;1.70;;
29218;SDS011;16421;50.202;7.852;2023-03-24T04:40:11;1.77;;;1.10;;
29218;SDS011;16421;50.202;7.852;2023-03-24T04:45:19;1.40;;;1.25;;
29218;SDS011;16421;50.202;7.852;2023-03-24T04:50:47;1.60;;;1.20;;
29218;SDS011;16421;50.202;7.852;2023-03-24T04:55:58;1.85;;;1.20;;
29218;SDS011;16421;50.202;7.852;2023-03-24T05:01:45;1.90;;;0.93;;
29218;SDS011;16421;50.202;7.852;2023-03-24T05:07:07;0.98;;;0.88;;
29218;SDS011;16421;50.202;7.852;2023-03-24T05:12:12;0.47;;;0.47;;
29218;SDS011;16421;50.202;7.852;2023-03-24T05:17:36;0.95;;;0.80;;
29218;SDS011;16421;50.202;7.852;2023-03-24T05:22:40;1.43;;;0.60;;
29218;SDS011;16421;50.202;7.852;2023-03-24T05:27:43;0.90;;;0.70;;
29218;SDS011;16421;50.202;7.852;2023-03-24T05:32:58;1.05;;;0.80;;
29218;SDS011;16421;50.202;7.852;2023-03-24T05:38:02;0.50;;;0.50;;
29218;SDS011;16421;50.202;7.852;2023-03-24T05:43:07;0.70;;;0.55;;
29218;SDS011;16421;50.202;7.852;2023-03-24T05:48:17;0.30;;;0.30;;
29218;SDS011;16421;50.202;7.852;2023-03-24T05:53:44;0.40;;;0.40;;
29218;SDS011;16421;50.202;7.852;2023-03-24T05:59:17;0.32;;;0.30;;
29218;SDS011;16421;50.202;7.852;2023-03-24T06:04:27;0.30;;;0.30;;
29218;SDS011;16421;50.202;7.852;2023-03-24T06:09:46;0.32;;;0.32;;
29218;SDS011;16421;50.202;7.852;2023-03-24T06:14:54;0.65;;;0.50;;
29218;SDS011;16421;50.202;7.852;2023-03-24T06:19:59;0.45;;;0.40;;
29218;SDS011;16421;50.202;7.852;2023-03-24T06:25:19;0.40;;;0.40;;
29218;SDS011;16421;50.202;7.852;2023-03-24T06:30:58;0.90;;;0.43;;
29218;SDS011;16421;50.202;7.852;2023-03-24T06:36:09;2.97;;;0.80;;
29218;SDS011;16421;50.202;7.852;2023-03-24T06:41:15;0.40;;;0.40;;
29218;SDS011;16421;50.202;7.852;2023-03-24T06:46:22;0.77;;;0.50;;
29218;SDS011;16421;50.202;7.852;2023-03-24T06:51:28;0.77;;;0.68;;
29218;SDS011;16421;50.202;7.852;2023-03-24T06:56:31;0.82;;;0.40;;
29218;SDS011;16421;50.202;7.852;2023-03-24T07:01:38;0.70;;;0.50;;
29218;SDS011;16421;50.202;7.852;2023-03-24T07:07:01;0.25;;;0.25;;
29218;SDS011;16421;50.202;7.852;2023-03-24T07:12:25;0.40;;;0.40;;
29218;SDS011;16421;50.202;7.852;2023-03-24T07:17:29;1.15;;;0.40;;
29218;SDS011;16421;50.202;7.852;2023-03-24T07:22:55;1.33;;;0.57;;
29218;SDS011;16421;50.202;7.852;2023-03-24T07:27:59;0.45;;;0.30;;
29218;SDS011;16421;50.202;7.852;2023-03-24T07:33:03;1.02;;;0.40;;
29218;SDS011;16421;50.202;7.852;2023-03-24T07:38:12;0.63;;;0.47;;
29218;SDS011;16421;50.202;7.852;2023-03-24T07:43:16;1.23;;;0.57;;
29218;SDS011;16421;50.202;7.852;2023-03-24T07:48:22;0.60;;;0.30;;
29218;SDS011;16421;50.202;7.852;2023-03-24T07:53:28;0.20;;;0.20;;
29218;SDS011;16421;50.202;7.852;2023-03-24T07:58:35;0.57;;;0.40;;
29218;SDS011;16421;50.202;7.852;2023-03-24T08:04:04;1.95;;;0.40;;
29218;SDS011;16421;50.202;7.852;2023-03-24T08:09:27;0.30;;;0.30;;
29218;SDS011;16421;50.202;7.852;2023-03-24T08:14:31;1.55;;;0.32;;
29218;SDS011;16421;50.202;7.852;2023-03-24T08:19:34;0.40;;;0.30;;
29218;SDS011;16421;50.202;7.852;2023-03-24T08:24:42;0.38;;;0.20;;
29218;SDS011;16421;50.202;7.852;2023-03-24T08:49:55;2.13;;;0.77;;
29218;SDS011;16421;50.202;7.852;2023-03-24T08:54:59;2.83;;;0.60;;
29218;SDS011;16421;50.202;7.852;2023-03-24T09:00:05;1.67;;;0.77;;
29218;SDS011;16421;50.202;7.852;2023-03-24T09:05:15;1.83;;;0.95;;
29218;SDS011;16421;50.202;7.852;2023-03-24T09:15:23;0.65;;;0.40;;
29218;SDS011;16421;50.202;7.852;2023-03-24T09:20:28;1.23;;;0.50;;
29218;SDS011;16421;50.202;7.852;2023-03-24T09:25:32;1.05;;;0.50;;
29218;SDS011;16421;50.202;7.852;2023-03-24T09:30:35;1.98;;;0.73;;
29218;SDS011;16421;50.202;7.852;2023-03-24T09:35:40;0.93;;;0.55;;
29218;SDS011;16421;50.202;7.852;2023-03-24T09:40:44;1.17;;;0.40;;
29218;SDS011;16421;50.202;7.852;2023-03-24T09:45:50;1.13;;;0.40;;
29218;SDS011;16421;50.202;7.852;2023-03-24T09:50:58;1.85;;;0.50;;
29218;SDS011;16421;50.202;7.852;2023-03-24T09:56:09;0.77;;;0.40;;
29218;SDS011;16421;50.202;7.852;2023-03-24T10:01:15;1.65;;;0.60;;
29218;SDS011;16421;50.202;7.852;2023-03-24T10:06:22;2.03;;;0.60;;
29218;SDS011;16421;50.202;7.852;2023-03-24T10:11:28;1.98;;;0.57;;
29218;SDS011;16421;50.202;7.852;2023-03-24T10:16:37;1.13;;;0.57;;
29218;SDS011;16421;50.202;7.852;2023-03-24T10:21:53;1.33;;;0.60;;
29218;SDS011;16421;50.202;7.852;2023-03-24T10:27:03;1.10;;;0.47;;
29218;SDS011;16421;50.202;7.852;2023-03-24T10:32:13;2.45;;;0.88;;
29218;SDS011;16421;50.202;7.852;2023-03-24T10:37:21;2.25;;;0.60;;
29218;SDS011;16421;50.202;7.852;2023-03-24T10:42:24;1.25;;;0.43;;
29218;SDS011;16421;50.202;7.852;2023-03-24T10:47:33;1.65;;;0.88;;
29218;SDS011;16421;50.202;7.852;2023-03-24T10:52:39;1.73;;;0.60;;
29218;SDS011;16421;50.202;7.852;2023-03-24T10:57:44;1.48;;;0.73;;
29218;SDS011;16421;50.202;7.852;2023-03-24T11:02:54;2.33;;;0.75;;
29218;SDS011;16421;50.202;7.852;2023-03-24T11:08:11;1.10;;;0.65;;
29218;SDS011;16421;50.202;7.852;2023-03-24T11:18:31;5.37;;;1.00;;
29218;SDS011;16421;50.202;7.852;2023-03-24T11:23:37;4.07;;;1.27;;
29218;SDS011;16421;50.202;7.852;2023-03-24T11:28:45;3.47;;;0.85;;
29218;SDS011;16421;50.202;7.852;2023-03-24T11:33:54;5.60;;;1.10;;
29218;SDS011;16421;50.202;7.852;2023-03-24T11:39:03;2.60;;;1.10;;
29218;SDS011;16421;50.202;7.852;2023-03-24T11:44:15;3.83;;;1.27;;
29218;SDS011;16421;50.202;7.852;2023-03-24T11:49:21;1.60;;;0.68;;
29218;SDS011;16421;50.202;7.852;2023-03-24T11:54:31;4.10;;;1.10;;
29218;SDS011;16421;50.202;7.852;2023-03-24T11:59:39;6.00;;;1.42;;
29218;SDS011;16421;50.202;7.852;2023-03-24T12:15:55;2.92;;;0.57;;
29218;SDS011;16421;50.202;7.852;2023-03-24T12:21:03;3.63;;;0.90;;
29218;SDS011;16421;50.202;7.852;2023-03-24T12:26:15;4.93;;;1.38;;
29218;SDS011;16421;50.202;7.852;2023-03-24T12:31:27;5.10;;;1.10;;
29218;SDS011;16421;50.202;7.852;2023-03-24T12:36:43;4.63;;;1.40;;
29218;SDS011;16421;50.202;7.852;2023-03-24T12:41:59;6.32;;;1.42;;
29218;SDS011;16421;50.202;7.852;2023-03-24T12:47:15;3.85;;;0.82;;
29218;SDS011;16421;50.202;7.852;2023-03-24T12:52:36;3.85;;;1.10;;
29218;SDS011;16421;50.202;7.852;2023-03-24T12:57:57;5.55;;;1.20;;
29218;SDS011;16421;50.202;7.852;2023-03-24T13:03:08;3.80;;;1.67;;
29218;SDS011;16421;50.202;7.852;2023-03-24T13:08:18;2.33;;;0.80;;
29218;SDS011;16421;50.202;7.852;2023-03-24T13:13:30;3.55;;;1.00;;
29218;SDS011;16421;50.202;7.852;2023-03-24T13:18:40;3.92;;;0.88;;
29218;SDS011;16421;50.202;7.852;2023-03-24T13:23:48;3.78;;;0.70;;
29218;SDS011;16421;50.202;7.852;2023-03-24T13:28:59;6.53;;;1.30;;
29218;SDS011;16421;50.202;7.852;2023-03-24T13:34:19;4.03;;;1.17;;
29218;SDS011;16421;50.202;7.852;2023-03-24T13:39:28;4.88;;;1.27;;
29218;SDS011;16421;50.202;7.852;2023-03-24T13:49:44;5.73;;;1.70;;
29218;SDS011;16421;50.202;7.852;2023-03-24T13:54:55;3.60;;;1.40;;
29218;SDS011;16421;50.202;7.852;2023-03-24T14:00:06;3.55;;;0.93;;
29218;SDS011;16421;50.202;7.852;2023-03-24T14:05:31;5.35;;;1.13;;
29218;SDS011;16421;50.202;7.852;2023-03-24T14:10:50;3.80;;;1.13;;
29218;SDS011;16421;50.202;7.852;2023-03-24T14:15:54;3.85;;;0.95;;
29218;SDS011;16421;50.202;7.852;2023-03-24T14:21:01;2.65;;;0.95;;
29218;SDS011;16421;50.202;7.852;2023-03-24T14:26:06;2.45;;;1.00;;
29218;SDS011;16421;50.202;7.852;2023-03-24T14:31:21;2.95;;;1.00;;
29218;SDS011;16421;50.202;7.852;2023-03-24T14:36:31;4.00;;;1.38;;
29218;SDS011;16421;50.202;7.852;2023-03-24T14:41:40;2.95;;;1.15;;
29218;SDS011;16421;50.202;7.852;2023-03-24T14:46:44;4.10;;;1.00;;
29218;SDS011;16421;50.202;7.852;2023-03-24T14:52:01;3.70;;;1.02;;
29218;SDS011;16421;50.202;7.852;2023-03-24T14:57:12;2.10;;;0.80;;
29218;SDS011;16421;50.202;7.852;2023-03-24T15:02:24;2.42;;;0.70;;
29218;SDS011;16421;50.202;7.852;2023-03-24T15:07:34;1.77;;;0.70;;
29218;SDS011;16421;50.202;7.852;2023-03-24T15:12:41;3.03;;;0.73;;
29218;SDS011;16421;50.202;7.852;2023-03-24T15:17:45;4.38;;;0.98;;
29218;SDS011;16421;50.202;7.852;2023-03-24T15:22:52;3.35;;;0.77;;
29218;SDS011;16421;50.202;7.852;2023-03-24T15:27:56;4.13;;;0.90;;
29218;SDS011;16421;50.202;7.852;2023-03-24T15:33:00;2.70;;;0.98;;
29218;SDS011;16421;50.202;7.852;2023-03-24T15:38:06;3.33;;;0.85;;
29218;SDS011;16421;50.202;7.852;2023-03-24T15:43:19;3.20;;;1.02;;
29218;SDS011;16421;50.202;7.852;2023-03-24T15:48:24;8.63;;;1.35;;
29218;SDS011;16421;50.202;7.852;2023-03-24T15:53:35;2.30;;;1.00;;
29218;SDS011;16421;50.202;7.852;2023-03-24T15:58:45;5.10;;;1.08;;
29218;SDS011;16421;50.202;7.852;2023-03-24T16:03:53;3.92;;;1.10;;
29218;SDS011;16421;50.202;7.852;2023-03-24T16:08:59;3.50;;;0.95;;
29218;SDS011;16421;50.202;7.852;2023-03-24T16:14:10;3.72;;;0.98;;
29218;SDS011;16421;50.202;7.852;2023-03-24T16:19:24;4.03;;;1.00;;
29218;SDS011;16421;50.202;7.852;2023-03-24T16:24:30;2.78;;;0.90;;
29218;SDS011;16421;50.202;7.852;2023-03-24T16:29:34;2.65;;;0.75;;
29218;SDS011;16421;50.202;7.852;2023-03-24T16:34:38;2.40;;;1.00;;
29218;SDS011;16421;50.202;7.852;2023-03-24T16:39:44;2.17;;;0.60;;
29218;SDS011;16421;50.202;7.852;2023-03-24T16:44:47;2.33;;;0.95;;
29218;SDS011;16421;50.202;7.852;2023-03-24T16:49:51;3.30;;;0.90;;
29218;SDS011;16421;50.202;7.852;2023-03-24T16:54:56;0.70;;;0.40;;
29218;SDS011;16421;50.202;7.852;2023-03-24T16:59:59;3.05;;;0.82;;
29218;SDS011;16421;50.202;7.852;2023-03-24T17:05:14;3.50;;;1.10;;
29218;SDS011;16421;50.202;7.852;2023-03-24T17:10:24;1.85;;;0.70;;
29218;SDS011;16421;50.202;7.852;2023-03-24T17:15:29;1.83;;;0.57;;
29218;SDS011;16421;50.202;7.852;2023-03-24T17:20:33;2.05;;;0.80;;
29218;SDS011;16421;50.202;7.852;2023-03-24T17:25:41;3.03;;;0.93;;
29218;SDS011;16421;50.202;7.852;2023-03-24T17:30:45;4.35;;;0.73;;
29218;SDS011;16421;50.202;7.852;2023-03-24T17:35:49;3.65;;;1.05;;
29218;SDS011;16421;50.202;7.852;2023-03-24T17:40:59;2.87;;;1.10;;
29218;SDS011;16421;50.202;7.852;2023-03-24T17:46:04;5.85;;;1.33;;
29218;SDS011;16421;50.202;7.852;2023-03-24T17:51:08;2.45;;;0.98;;
29218;SDS011;16421;50.202;7.852;2023-03-24T17:56:14;4.85;;;1.02;;
29218;SDS011;16421;50.202;7.852;2023-03-24T18:01:18;5.93;;;1.30;;
29218;SDS011;16421;50.202;7.852;2023-03-24T18:06:22;3.03;;;0.50;;
29218;SDS011;16421;50.202;7.852;2023-03-24T18:11:29;2.65;;;0.65;;
29218;SDS011;16421;50.202;7.852;2023-03-24T18:16:33;3.13;;;0.67;;
29218;SDS011;16421;50.202;7.852;2023-03-24T18:21:37;2.35;;;0.77;;
29218;SDS011;16421;50.202;7.852;2023-03-24T18:26:42;1.63;;;0.50;;
29218;SDS011;16421;50.202;7.852;2023-03-24T18:31:47;4.38;;;1.02;;
29218;SDS011;16421;50.202;7.852;2023-03-24T18:36:51;0.95;;;0.40;;
29218;SDS011;16421;50.202;7.852;2023-03-24T18:41:57;1.42;;;0.52;;
29218;SDS011;16421;50.202;7.852;2023-03-24T18:47:01;1.45;;;0.50;;
29218;SDS011;16421;50.202;7.852;2023-03-24T18:52:05;0.68;;;0.30;;
29218;SDS011;16421;50.202;7.852;2023-03-24T18:57:11;1.27;;;0.75;;
29218;SDS011;16421;50.202;7.852;2023-03-24T19:02:15;2.08;;;0.88;;
29218;SDS011;16421;50.202;7.852;2023-03-24T19:07:18;2.22;;;0.77;;
29218;SDS011;16421;50.202;7.852;2023-03-24T19:12:28;0.95;;;0.80;;
29218;SDS011;16421;50.202;7.852;2023-03-24T19:17:32;2.67;;;1.45;;
29218;SDS011;16421;50.202;7.852;2023-03-24T19:22:36;1.55;;;1.10;;
29218;SDS011;16421;50.202;7.852;2023-03-24T19:27:43;2.38;;;1.60;;
29218;SDS011;16421;50.202;7.852;2023-03-24T19:32:46;1.95;;;1.50;;
29218;SDS011;16421;50.202;7.852;2023-03-24T19:37:50;1.75;;;1.10;;
29218;SDS011;16421;50.202;7.852;2023-03-24T19:42:56;1.88;;;0.80;;
29218;SDS011;16421;50.202;7.852;2023-03-24T19:47:59;1.60;;;0.80;;
29218;SDS011;16421;50.202;7.852;2023-03-24T19:53:03;1.00;;;0.55;;
29218;SDS011;16421;50.202;7.852;2023-03-24T19:58:08;3.28;;;0.40;;
29218;SDS011;16421;50.202;7.852;2023-03-24T20:03:12;0.95;;;0.40;;
29218;SDS011;16421;50.202;7.852;2023-03-24T20:08:15;1.00;;;0.52;;
29218;SDS011;16421;50.202;7.852;2023-03-24T20:13:23;2.15;;;0.80;;
29218;SDS011;16421;50.202;7.852;2023-03-24T20:18:28;2.60;;;1.00;;
29218;SDS011;16421;50.202;7.852;2023-03-24T20:23:32;0.93;;;0.75;;
29218;SDS011;16421;50.202;7.852;2023-03-24T20:28:37;1.77;;;0.70;;
29218;SDS011;16421;50.202;7.852;2023-03-24T20:33:41;1.73;;;0.90;;
29218;SDS011;16421;50.202;7.852;2023-03-24T20:38:44;2.70;;;0.85;;
29218;SDS011;16421;50.202;7.852;2023-03-24T20:43:49;1.52;;;0.52;;
29218;SDS011;16421;50.202;7.852;2023-03-24T20:48:54;0.80;;;0.40;;
29218;SDS011;16421;50.202;7.852;2023-03-24T20:54:00;1.77;;;0.50;;
29218;SDS011;16421;50.202;7.852;2023-03-24T20:59:07;0.65;;;0.30;;
29218;SDS011;16421;50.202;7.852;2023-03-24T21:04:11;2.97;;;0.65;;
29218;SDS011;16421;50.202;7.852;2023-03-24T21:09:14;0.82;;;0.40;;
29218;SDS011;16421;50.202;7.852;2023-03-24T21:14:22;1.85;;;0.70;;
29218;SDS011;16421;50.202;7.852;2023-03-24T21:19:26;1.40;;;0.30;;
29218;SDS011;16421;50.202;7.852;2023-03-24T21:24:30;0.47;;;0.40;;
29218;SDS011;16421;50.202;7.852;2023-03-24T21:29:36;1.02;;;0.30;;
29218;SDS011;16421;50.202;7.852;2023-03-24T21:34:40;0.80;;;0.20;;
29218;SDS011;16421;50.202;7.852;2023-03-24T21:39:44;1.23;;;0.30;;
29218;SDS011;16421;50.202;7.852;2023-03-24T21:44:49;0.85;;;0.30;;
29218;SDS011;16421;50.202;7.852;2023-03-24T21:49:53;0.30;;;0.20;;
29218;SDS011;16421;50.202;7.852;2023-03-24T21:54:59;0.20;;;0.20;;
29218;SDS011;16421;50.202;7.852;2023-03-24T22:00:05;0.10;;;0.10;;
29218;SDS011;16421;50.202;7.852;2023-03-24T22:05:15;0.45;;;0.40;;
29218;SDS011;16421;50.202;7.852;2023-03-24T22:10:20;0.22;;;0.22;;
29218;SDS011;16421;50.202;7.852;2023-03-24T22:15:26;0.98;;;0.40;;
29218;SDS011;16421;50.202;7.852;2023-03-24T22:20:35;0.57;;;0.30;;
29218;SDS011;16421;50.202;7.852;2023-03-24T22:25:41;0.30;;;0.28;;
29218;SDS011;16421;50.202;7.852;2023-03-24T22:30:46;0.70;;;0.30;;
29218;SDS011;16421;50.202;7.852;2023-03-24T22:35:52;0.63;;;0.28;;
29218;SDS011;16421;50.202;7.852;2023-03-24T22:40:57;0.20;;;0.20;;
29218;SDS011;16421;50.202;7.852;2023-03-24T22:46:03;1.85;;;0.30;;
29218;SDS011;16421;50.202;7.852;2023-03-24T22:51:07;0.30;;;0.30;;
29218;SDS011;16421;50.202;7.852;2023-03-24T22:56:17;3.42;;;0.90;;
29218;SDS011;16421;50.202;7.852;2023-03-24T23:01:22;1.40;;;0.40;;
29218;SDS011;16421;50.202;7.852;2023-03-24T23:06:26;0.27;;;0.27;;
29218;SDS011;16421;50.202;7.852;2023-03-24T23:11:30;0.45;;;0.30;;
29218;SDS011;16421;50.202;7.852;2023-03-24T23:16:36;0.38;;;0.20;;
29218;SDS011;16421;50.202;7.852;2023-03-24T23:21:39;0.20;;;0.20;;
29218;SDS011;16421;50.202;7.852;2023-03-24T23:26:44;0.50;;;0.30;;
29218;SDS011;16421;50.202;7.852;2023-03-24T23:31:49;0.43;;;0.20;;
29218;SDS011;16421;50.202;7.852;2023-03-24T23:36:53;0.40;;;0.20;;
29218;SDS011;16421;50.202;7.852;2023-03-24T23:41:57;0.65;;;0.30;;
29218;SDS011;16421;50.202;7.852;2023-03-24T23:47:11;0.40;;;0.32;;
29218;SDS011;16421;50.202;7.852;2023-03-24T23:52:46;0.25;;;0.20;;
29218;SDS011;16421;50.202;7.852;2023-03-24T23:57:50;0.28;;;0.28;;
